createdAt,value
2019-02-12T00:04:02.253Z,6.37
2019-02-12T00:09:09.918Z,8.04
2019-02-12T00:14:17.549Z,5.97
2019-02-12T00:19:25.368Z,7.36
2019-02-12T00:24:33.046Z,7.18
2019-02-12T00:29:40.961Z,4.21
2019-02-12T00:34:48.737Z,7.24
2019-02-12T00:39:56.467Z,4.36
2019-02-12T00:45:04.005Z,5.23
2019-02-12T00:50:11.716Z,4.46
2019-02-12T00:55:20.314Z,3.96
2019-02-12T01:00:28.252Z,2.78
2019-02-12T01:05:36.154Z,3.99
2019-02-12T01:10:43.898Z,3.53
2019-02-12T01:15:51.666Z,3.81
2019-02-12T01:20:59.508Z,4.07
2019-02-12T01:26:07.417Z,5.15
2019-02-12T01:31:15.330Z,3.51
2019-02-12T01:36:23.084Z,3.78
2019-02-12T01:41:30.673Z,3.50
2019-02-12T01:46:38.303Z,3.26
2019-02-12T01:51:46.029Z,2.27
2019-02-12T01:56:53.646Z,2.80
2019-02-12T02:02:01.345Z,2.37
2019-02-12T02:07:08.950Z,3.21
2019-02-12T02:12:16.689Z,3.39
2019-02-12T02:17:24.309Z,3.39
2019-02-12T02:22:32.062Z,3.77
2019-02-12T02:27:39.742Z,5.74
2019-02-12T02:32:47.709Z,3.23
2019-02-12T02:37:55.453Z,3.76
2019-02-12T02:43:03.217Z,2.67
2019-02-12T02:48:10.999Z,3.63
2019-02-12T02:53:18.817Z,4.05
2019-02-12T02:58:27.321Z,3.50
2019-02-12T03:03:35.265Z,4.26
2019-02-12T03:08:42.869Z,2.64
2019-02-12T03:13:50.541Z,3.91
2019-02-12T03:18:58.111Z,2.88
2019-02-12T03:24:05.741Z,3.78
2019-02-12T03:29:13.393Z,2.34
2019-02-12T03:34:21.290Z,3.62
2019-02-12T03:39:29.054Z,3.33
2019-02-12T03:44:36.858Z,4.83
2019-02-12T03:49:44.565Z,3.89
2019-02-12T03:54:52.318Z,5.40
2019-02-12T04:00:00.036Z,4.20
2019-02-12T04:05:07.626Z,6.91
2019-02-12T04:10:15.354Z,4.78
2019-02-12T04:15:22.958Z,5.97
2019-02-12T04:20:30.657Z,4.58
2019-02-12T04:25:38.263Z,6.82
2019-02-12T04:30:46.118Z,3.26
2019-02-12T04:35:53.773Z,6.06
2019-02-12T04:41:01.388Z,4.11
2019-02-12T04:46:09.207Z,3.88
2019-02-12T04:51:16.909Z,2.97
2019-02-12T04:56:24.675Z,7.09
2019-02-12T05:01:32.414Z,6.21
2019-02-12T05:06:40.162Z,3.62
2019-02-12T05:11:47.758Z,3.95
2019-02-12T05:16:55.489Z,3.95
2019-02-12T05:22:03.103Z,5.07
2019-02-12T05:27:10.934Z,3.71
2019-02-12T05:32:18.726Z,3.41
2019-02-12T05:37:26.558Z,4.53
2019-02-12T05:42:34.308Z,3.67
2019-02-12T05:47:41.981Z,4.23
2019-02-12T05:52:54.742Z,3.55
2019-02-12T05:57:50.557Z,3.30
2019-02-12T06:02:58.290Z,4.53
2019-02-12T06:08:05.924Z,3.24
2019-02-12T06:13:13.545Z,4.94
2019-02-12T06:18:21.350Z,5.18
2019-02-12T06:23:29.171Z,4.11
2019-02-12T06:28:36.913Z,4.11
2019-02-12T06:33:44.642Z,3.85
2019-02-12T06:38:52.292Z,3.20
2019-02-12T06:43:59.938Z,4.84
2019-02-12T06:49:07.577Z,3.69
2019-02-12T06:54:15.316Z,3.31
2019-02-12T06:59:22.975Z,3.80
2019-02-12T07:04:30.860Z,4.51
2019-02-12T07:09:38.621Z,3.76
2019-02-12T07:14:46.363Z,2.29
2019-02-12T07:19:53.937Z,3.94
2019-02-12T07:25:01.637Z,3.93
2019-02-12T07:30:10.377Z,4.18
2019-02-12T07:35:18.293Z,6.58
2019-02-12T07:40:26.101Z,4.35
2019-02-12T07:45:33.733Z,5.08
2019-02-12T07:50:41.435Z,5.94
2019-02-12T07:55:51.401Z,7.01
2019-02-12T08:00:56.726Z,4.91
2019-02-12T08:06:04.413Z,5.54
2019-02-12T08:11:12.017Z,5.25
2019-02-12T08:16:20.001Z,5.45
2019-02-12T08:21:28.649Z,4.79
2019-02-12T08:26:36.526Z,4.54
2019-02-12T08:31:44.292Z,6.61
2019-02-12T08:36:52.009Z,7.57
2019-02-12T08:41:59.766Z,6.15
2019-02-12T08:47:07.433Z,5.29
2019-02-12T08:52:15.178Z,4.66
2019-02-12T08:57:23.942Z,3.53
2019-02-12T09:02:31.577Z,4.25
2019-02-12T09:07:39.260Z,4.80
2019-02-12T09:12:46.849Z,4.31
2019-02-12T09:17:54.449Z,5.41
2019-02-12T09:23:03.357Z,3.79
2019-02-12T09:28:11.009Z,5.87
2019-02-12T09:33:18.687Z,6.49
2019-02-12T09:38:26.389Z,5.68
2019-02-12T09:43:34.021Z,6.63
2019-02-12T09:48:41.717Z,7.42
2019-02-12T09:53:49.466Z,6.14
2019-02-12T09:58:57.133Z,5.93
2019-02-12T10:04:04.807Z,8.15
2019-02-12T10:09:12.559Z,4.94
2019-02-12T10:14:20.249Z,5.70
2019-02-12T10:19:27.901Z,5.06
2019-02-12T10:24:36.708Z,6.73
2019-02-12T10:29:44.445Z,9.18
2019-02-12T10:34:52.230Z,8.75
2019-02-12T10:39:59.933Z,8.28
2019-02-12T10:45:07.550Z,8.29
2019-02-12T10:50:15.467Z,10.42
2019-02-12T10:55:24.056Z,10.37
2019-02-12T11:00:31.889Z,9.06
2019-02-12T11:05:39.528Z,7.17
2019-02-12T11:10:47.198Z,10.81
2019-02-12T11:15:54.778Z,10.77
2019-02-12T11:21:02.480Z,10.28
2019-02-12T11:26:10.203Z,9.78
2019-02-12T11:31:17.901Z,7.75
2019-02-12T11:36:25.980Z,10.04
2019-02-12T11:41:34.258Z,10.23
2019-02-12T11:46:41.944Z,9.04
2019-02-12T11:51:49.561Z,8.70
2019-02-12T11:56:57.181Z,8.00
2019-02-12T12:02:04.818Z,8.65
2019-02-12T12:07:12.747Z,9.45
2019-02-12T12:12:20.385Z,9.93
2019-02-12T12:17:28.074Z,10.46
2019-02-12T12:22:36.665Z,9.30
2019-02-12T12:27:44.432Z,10.53
2019-02-12T12:32:52.092Z,8.10
2019-02-12T12:37:59.781Z,6.93
2019-02-12T12:43:07.425Z,9.76
2019-02-12T12:48:15.488Z,8.80
2019-02-12T12:53:36.546Z,8.98
2019-02-12T12:58:24.357Z,8.33
2019-02-12T13:03:31.949Z,10.08
2019-02-12T13:08:39.781Z,10.50
2019-02-12T13:13:48.433Z,11.20
2019-02-12T13:18:56.236Z,13.07
2019-02-12T13:24:03.969Z,9.95
2019-02-12T13:29:11.610Z,8.45
2019-02-12T13:34:19.379Z,8.76
2019-02-12T13:39:27.122Z,16.00
2019-02-12T13:44:34.756Z,10.95
2019-02-12T13:49:42.537Z,9.75
2019-02-12T13:54:50.602Z,7.58
2019-02-12T13:59:58.201Z,11.36
2019-02-12T14:05:05.840Z,9.00
2019-02-12T14:10:13.442Z,13.07
2019-02-12T14:15:21.348Z,11.18
2019-02-12T14:20:28.986Z,11.00
2019-02-12T14:25:36.738Z,12.50
2019-02-12T14:30:44.879Z,8.37
2019-02-12T14:35:52.501Z,7.86
2019-02-12T14:41:00.327Z,8.09
2019-02-12T14:46:07.965Z,6.74
2019-02-12T14:51:16.383Z,6.51
2019-02-12T14:56:26.933Z,8.37
2019-02-12T15:01:24.574Z,4.39
2019-02-12T15:06:32.530Z,6.34
2019-02-12T15:11:40.214Z,13.88
2019-02-12T15:16:47.797Z,9.11
2019-02-12T15:21:55.505Z,8.28
2019-02-12T15:27:03.109Z,11.16
2019-02-12T15:32:10.745Z,8.98
2019-02-12T15:37:18.381Z,9.73
2019-02-12T15:42:25.966Z,9.59
2019-02-12T15:47:33.720Z,10.64
2019-02-12T15:52:41.393Z,9.24
2019-02-12T15:57:49.081Z,11.56
2019-02-12T16:02:57.978Z,12.30
2019-02-12T16:08:05.653Z,8.65
2019-02-12T16:13:11.551Z,10.24
2019-02-12T16:18:18.601Z,10.24
2019-02-12T16:23:26.351Z,10.20
2019-02-12T16:28:34.795Z,12.05
2019-02-12T16:33:42.402Z,16.51
2019-02-12T16:38:49.977Z,12.15
2019-02-12T16:43:57.613Z,12.06
2019-02-12T16:49:05.298Z,11.26
2019-02-12T16:54:13.093Z,12.07
2019-02-12T16:59:20.736Z,11.00
2019-02-12T17:04:28.569Z,12.55
2019-02-12T17:09:36.214Z,12.79
2019-02-12T17:14:44.108Z,12.16
2019-02-12T17:19:51.724Z,12.95
2019-02-12T17:25:00.361Z,12.14
2019-02-12T17:30:08.024Z,13.29
2019-02-12T17:35:15.741Z,11.00
2019-02-12T17:40:23.453Z,12.03
2019-02-12T17:45:31.432Z,9.77
2019-02-12T17:50:40.317Z,11.35
2019-02-12T17:55:48.126Z,12.57
2019-02-12T18:00:55.711Z,11.48
2019-02-12T18:06:03.425Z,10.63
2019-02-12T18:11:11.312Z,11.27
2019-02-12T18:16:19.053Z,8.16
2019-02-12T18:21:27.648Z,9.25
2019-02-12T18:26:35.337Z,9.42
2019-02-12T18:31:43.204Z,9.87
2019-02-12T18:36:51.386Z,9.79
2019-02-12T18:41:59.357Z,8.88
2019-02-12T18:47:07.073Z,9.45
2019-02-12T18:52:14.677Z,7.97
2019-02-12T18:57:22.597Z,7.77
2019-02-12T19:02:30.303Z,7.32
2019-02-12T19:07:37.962Z,17.04
2019-02-12T19:12:45.614Z,7.72
2019-02-12T19:17:53.203Z,8.09
2019-02-12T19:23:00.817Z,8.09
2019-02-12T19:28:08.382Z,8.46
2019-02-12T19:33:16.288Z,8.45
2019-02-12T19:38:24.016Z,7.87
2019-02-12T19:43:32.150Z,7.95
2019-02-12T19:48:40.682Z,7.90
2019-02-12T19:53:48.497Z,7.25
2019-02-12T19:58:56.224Z,12.81
2019-02-12T20:04:03.980Z,7.53
2019-02-12T20:09:11.748Z,7.89
2019-02-12T20:14:19.594Z,8.11
2019-02-12T20:19:27.241Z,7.54
2019-02-12T20:24:34.916Z,9.19
2019-02-12T20:29:42.580Z,9.52
2019-02-12T20:34:50.345Z,9.87
2019-02-12T20:39:57.968Z,15.57
2019-02-12T20:45:07.671Z,9.87
2019-02-12T20:50:16.487Z,11.05
2019-02-12T20:55:24.379Z,12.95
2019-02-12T21:00:33.097Z,12.03
2019-02-12T21:05:40.757Z,15.82
2019-02-12T21:10:48.433Z,15.83
2019-02-12T21:15:56.080Z,15.05
2019-02-12T21:21:03.785Z,15.02
2019-02-12T21:26:11.492Z,15.19
2019-02-12T21:31:19.777Z,16.00
2019-02-12T21:36:28.348Z,17.88
2019-02-12T21:41:36.270Z,16.61
2019-02-12T21:46:43.917Z,18.11
2019-02-12T21:51:51.702Z,18.91
2019-02-12T21:56:59.771Z,18.22
2019-02-12T22:02:07.521Z,18.71
2019-02-12T22:07:15.362Z,19.56
2019-02-12T22:12:24.069Z,18.38
2019-02-12T22:17:31.826Z,19.13
2019-02-12T22:22:39.569Z,18.30
2019-02-12T22:27:47.258Z,20.54
2019-02-12T22:32:55.010Z,18.90
2019-02-12T22:38:02.652Z,18.24
2019-02-12T22:43:10.292Z,21.11
2019-02-12T22:48:17.905Z,19.75
2019-02-12T22:53:26.583Z,19.27
2019-02-12T22:58:34.317Z,19.20
2019-02-12T23:03:41.947Z,35.38
2019-02-12T23:08:49.518Z,19.21
2019-02-12T23:13:59.361Z,22.28
2019-02-12T23:19:07.210Z,20.14
2019-02-12T23:24:14.889Z,19.83
2019-02-12T23:29:22.541Z,18.77
2019-02-12T23:34:30.281Z,20.92
2019-02-12T23:39:37.977Z,34.54
2019-02-12T23:44:45.560Z,21.89
2019-02-12T23:49:53.305Z,22.45
2019-02-12T23:55:01.040Z,23.79
